Time,TemperatureF,DewpointF,PressureIn,WindDirection,WindDirectionDegrees,WindSpeedMPH,WindSpeedGustMPH,Humidity,HourlyPrecipIn,Conditions,Clouds,dailyrainin,SoftwareType,DateUTC
2013-04-07 00:00:00,57.4,51.3,30.02,NE,45,0.0,3.2,80,0.00,,CLR,0.00,VWS V14.01,2013-04-07 07:00:00,
2013-04-07 00:10:00,57.2,51.1,30.02,NNE,30,3.2,3.2,80,0.00,,CLR,0.00,VWS V14.01,2013-04-07 07:10:00,
2013-04-07 00:20:00,57.0,51.3,30.02,North,0,0.0,3.8,81,0.00,,CLR,0.00,VWS V14.01,2013-04-07 07:20:00,
2013-04-07 00:30:00,56.7,50.9,30.02,ENE,77,0.0,3.8,81,0.00,,CLR,0.00,VWS V14.01,2013-04-07 07:30:00,
2013-04-07 00:40:00,56.5,50.7,30.02,ENE,76,0.0,0.0,81,0.00,,CLR,0.00,VWS V14.01,2013-04-07 07:40:00,
2013-04-07 00:50:00,56.1,50.4,30.02,NNE,18,0.0,0.0,81,0.00,,CLR,0.00,VWS V14.01,2013-04-07 07:50:00,
2013-04-07 01:00:00,55.8,50.0,30.02,North,0,0.0,2.7,81,0.00,,CLR,0.00,VWS V14.01,2013-04-07 08:00:00,
2013-04-07 01:10:00,55.4,50.0,30.02,North,0,3.2,4.8,82,0.00,,CLR,0.00,VWS V14.01,2013-04-07 08:10:00,
2013-04-07 01:20:00,55.2,50.2,30.02,North,356,3.2,6.4,83,0.00,,CLR,0.00,VWS V14.01,2013-04-07 08:20:00,
2013-04-07 01:30:00,55.4,50.7,30.02,North,3,4.8,7.0,84,0.00,,CLR,0.00,VWS V14.01,2013-04-07 08:30:00,
2013-04-07 01:40:00,55.6,51.2,30.02,NNE,23,4.3,7.5,85,0.00,,CLR,0.00,VWS V14.01,2013-04-07 08:40:00,
2013-04-07 01:50:00,55.8,51.3,30.02,NNE,18,4.8,7.0,85,0.00,,CLR,0.00,VWS V14.01,2013-04-07 08:50:00,
2013-04-07 02:00:00,55.6,51.2,30.02,NNE,14,3.2,5.9,85,0.00,,CLR,0.00,VWS V14.01,2013-04-07 09:00:00,
2013-04-07 02:10:00,55.6,51.5,29.99,NNE,27,0.0,5.9,86,0.00,,CLR,0.00,VWS V14.01,2013-04-07 09:10:00,
2013-04-07 02:20:00,55.6,51.2,29.99,NNE,27,0.0,3.2,85,0.00,,CLR,0.00,VWS V14.01,2013-04-07 09:20:00,
2013-04-07 02:30:00,55.2,50.8,29.99,NNE,23,3.2,3.8,85,0.00,,CLR,0.00,VWS V14.01,2013-04-07 09:30:00,
2013-04-07 02:40:00,54.7,50.3,29.99,NNE,33,0.0,3.8,85,0.00,,CLR,0.00,VWS V14.01,2013-04-07 09:40:00,
2013-04-07 02:50:00,54.3,49.6,29.99,NNW,337,0.0,0.0,84,0.00,,CLR,0.00,VWS V14.01,2013-04-07 09:50:00,
2013-04-07 03:00:00,54.3,49.9,29.99,NNW,338,0.0,0.0,85,0.00,,CLR,0.00,VWS V14.01,2013-04-07 10:00:00,
2013-04-07 03:10:00,54.1,49.7,29.99,NW,311,0.0,4.3,85,0.00,,CLR,0.00,VWS V14.01,2013-04-07 10:10:00,
2013-04-07 03:20:00,54.0,49.9,29.99,NW,311,0.0,0.0,86,0.00,,CLR,0.00,VWS V14.01,2013-04-07 10:20:00,
2013-04-07 03:30:00,54.0,49.9,29.96,WNW,287,0.0,3.8,86,0.00,,CLR,0.00,VWS V14.01,2013-04-07 10:30:00,
2013-04-07 03:40:00,54.0,49.9,29.96,WNW,301,0.0,0.0,86,0.00,,CLR,0.00,VWS V14.01,2013-04-07 10:40:00,
2013-04-07 03:50:00,53.8,49.7,29.96,WNW,301,0.0,3.2,86,0.00,,CLR,0.00,VWS V14.01,2013-04-07 10:50:00,
2013-04-07 04:00:00,53.6,49.8,29.96,WNW,300,0.0,0.0,87,0.00,,CLR,0.00,VWS V14.01,2013-04-07 11:00:00,
2013-04-07 04:10:00,53.4,49.7,29.96,North,7,0.0,3.2,87,0.00,,CLR,0.00,VWS V14.01,2013-04-07 11:10:00,
2013-04-07 04:20:00,53.2,49.5,29.96,North,7,0.0,0.0,87,0.00,,CLR,0.00,VWS V14.01,2013-04-07 11:20:00,
2013-04-07 04:30:00,53.2,49.5,29.96,North,7,0.0,0.0,87,0.00,,CLR,0.00,VWS V14.01,2013-04-07 11:30:00,
2013-04-07 04:40:00,53.1,49.3,29.96,North,7,0.0,0.0,87,0.00,,CLR,0.00,VWS V14.01,2013-04-07 11:40:00,
2013-04-07 04:50:00,52.7,49.0,29.96,WNW,291,0.0,4.3,87,0.00,,CLR,0.00,VWS V14.01,2013-04-07 11:50:00,
2013-04-07 05:00:00,52.5,48.8,29.96,West,273,0.0,4.3,87,0.00,,CLR,0.00,VWS V14.01,2013-04-07 12:00:00,
2013-04-07 05:10:00,52.5,48.8,29.96,North,356,0.0,0.0,87,0.00,,CLR,0.00,VWS V14.01,2013-04-07 12:10:00,
2013-04-07 05:20:00,52.3,48.6,29.96,NW,325,3.2,4.3,87,0.00,,CLR,0.00,VWS V14.01,2013-04-07 12:20:00,
2013-04-07 05:30:00,52.2,48.7,29.96,WNW,289,3.8,4.8,88,0.00,,CLR,0.00,VWS V14.01,2013-04-07 12:30:00,
2013-04-07 05:40:00,52.2,48.7,29.96,WNW,289,0.0,4.3,88,0.00,,CLR,0.00,VWS V14.01,2013-04-07 12:40:00,
2013-04-07 05:50:00,52.2,48.7,29.96,NNE,30,3.8,3.8,88,0.00,,CLR,0.00,VWS V14.01,2013-04-07 12:50:00,
2013-04-07 06:00:00,51.8,48.4,29.96,NW,318,0.0,4.3,88,0.00,,CLR,0.00,VWS V14.01,2013-04-07 13:00:00,
2013-04-07 06:10:00,51.8,48.4,29.96,NW,318,0.0,0.0,88,0.00,,CLR,0.00,VWS V14.01,2013-04-07 13:10:00,
2013-04-07 06:20:00,51.6,48.5,29.96,NNW,334,0.0,3.2,89,0.00,,CLR,0.00,VWS V14.01,2013-04-07 13:20:00,
2013-04-07 06:30:00,51.6,48.5,29.96,North,2,0.0,4.3,89,0.00,,CLR,0.00,VWS V14.01,2013-04-07 13:30:00,
2013-04-07 06:40:00,51.6,48.5,29.96,NNW,327,0.0,3.2,89,0.00,,CLR,0.00,VWS V14.01,2013-04-07 13:40:00,
2013-04-07 06:50:00,51.6,48.8,29.96,NW,325,0.0,2.7,90,0.00,,CLR,0.00,VWS V14.01,2013-04-07 13:50:00,
2013-04-07 07:00:00,51.8,49.0,29.96,NW,304,0.0,3.2,90,0.00,,CLR,0.00,VWS V14.01,2013-04-07 14:00:00,
2013-04-07 07:10:00,52.2,49.3,29.99,NW,304,0.0,3.8,90,0.00,,CLR,0.00,VWS V14.01,2013-04-07 14:10:00,
2013-04-07 07:20:00,52.3,49.8,29.99,NW,306,0.0,0.0,91,0.00,,CLR,0.00,VWS V14.01,2013-04-07 14:20:00,
2013-04-07 07:30:00,52.7,50.2,29.99,East,87,3.2,3.2,91,0.00,,CLR,0.00,VWS V14.01,2013-04-07 14:30:00,
2013-04-07 07:40:00,52.7,49.8,29.99,NE,47,0.0,5.9,90,0.00,,CLR,0.00,VWS V14.01,2013-04-07 14:40:00,
2013-04-07 07:50:00,52.7,49.5,29.99,NE,42,0.0,0.0,89,0.00,,CLR,0.00,VWS V14.01,2013-04-07 14:50:00,
2013-04-07 08:00:00,52.9,49.7,29.99,NE,34,0.0,3.2,89,0.00,,CLR,0.00,VWS V14.01,2013-04-07 15:00:00,
2013-04-07 08:10:00,53.2,50.1,29.99,NNE,33,0.0,0.0,89,0.00,,CLR,0.00,VWS V14.01,2013-04-07 15:10:00,
2013-04-07 08:20:00,53.8,50.6,29.99,NNE,32,0.0,2.7,89,0.00,,CLR,0.00,VWS V14.01,2013-04-07 15:20:00,
2013-04-07 08:30:00,54.9,52.0,29.99,NW,313,0.0,3.2,90,0.00,,CLR,0.00,VWS V14.01,2013-04-07 15:30:00,
2013-04-07 08:40:00,55.8,53.2,29.99,NW,311,0.0,0.0,91,0.00,,CLR,0.00,VWS V14.01,2013-04-07 15:40:00,
2013-04-07 08:50:00,56.5,53.9,29.99,NW,308,0.0,0.0,91,0.00,,CLR,0.00,VWS V14.01,2013-04-07 15:50:00,
2013-04-07 09:00:00,57.2,54.3,29.99,SW,231,0.0,2.7,90,0.00,,CLR,0.00,VWS V14.01,2013-04-07 16:00:00,
2013-04-07 09:10:00,58.1,54.3,30.02,South,185,0.0,4.8,87,0.00,,CLR,0.00,VWS V14.01,2013-04-07 16:10:00,
2013-04-07 09:20:00,59.0,54.2,30.02,South,184,0.0,4.8,84,0.00,,CLR,0.00,VWS V14.01,2013-04-07 16:20:00,
2013-04-07 09:30:00,59.4,54.2,30.02,SSE,149,0.0,5.9,83,0.00,,CLR,0.00,VWS V14.01,2013-04-07 16:30:00,
2013-04-07 09:40:00,59.9,54.1,30.02,SSE,161,4.3,4.8,81,0.00,,CLR,0.00,VWS V14.01,2013-04-07 16:40:00,
2013-04-07 09:50:00,60.4,54.2,30.02,SSE,154,2.7,4.3,80,0.00,,CLR,0.00,VWS V14.01,2013-04-07 16:50:00,
2013-04-07 10:00:00,61.2,54.3,30.02,South,184,3.2,6.4,78,0.00,,CLR,0.00,VWS V14.01,2013-04-07 17:00:00,
2013-04-07 10:10:00,61.9,54.2,30.02,SW,227,0.0,7.5,76,0.00,,CLR,0.00,VWS V14.01,2013-04-07 17:10:00,
2013-04-07 10:20:00,62.4,54.4,30.02,South,182,4.3,7.0,75,0.00,,CLR,0.00,VWS V14.01,2013-04-07 17:20:00,
2013-04-07 10:30:00,62.8,54.4,30.02,South,182,4.8,7.5,74,0.00,,CLR,0.00,VWS V14.01,2013-04-07 17:30:00,
2013-04-07 10:40:00,63.1,54.7,30.02,SSE,168,3.8,7.5,74,0.00,,CLR,0.00,VWS V14.01,2013-04-07 17:40:00,
2013-04-07 10:50:00,64.0,55.6,30.02,SSW,203,3.8,7.0,74,0.00,,CLR,0.00,VWS V14.01,2013-04-07 17:50:00,
2013-04-07 11:00:00,64.8,55.5,30.02,WSW,249,4.3,6.4,72,0.00,,CLR,0.00,VWS V14.01,2013-04-07 18:00:00,
2013-04-07 11:10:00,65.5,55.8,30.02,South,175,4.8,7.5,71,0.00,,CLR,0.00,VWS V14.01,2013-04-07 18:10:00,
2013-04-07 11:20:00,65.8,55.8,30.02,SSW,201,4.3,6.4,70,0.00,,CLR,0.00,VWS V14.01,2013-04-07 18:20:00,
2013-04-07 11:30:00,66.2,55.3,30.02,South,176,0.0,7.0,68,0.00,,CLR,0.00,VWS V14.01,2013-04-07 18:30:00,
2013-04-07 11:50:00,68.2,55.5,30.02,South,169,2.7,7.0,64,0.00,,CLR,0.00,VWS V14.01,2013-04-07 18:50:00,
2013-04-07 12:00:00,68.7,55.2,30.02,West,259,2.7,9.1,62,0.00,,CLR,0.00,VWS V14.01,2013-04-07 19:00:00,
2013-04-07 12:10:00,68.9,54.0,29.99,SSE,160,4.3,7.0,59,0.00,,CLR,0.00,VWS V14.01,2013-04-07 19:10:00,
2013-04-07 12:20:00,69.4,54.0,29.99,SSE,165,3.8,7.0,58,0.00,,CLR,0.00,VWS V14.01,2013-04-07 19:20:00,
2013-04-07 12:30:00,69.8,53.4,29.99,SSE,153,0.0,9.1,56,0.00,,CLR,0.00,VWS V14.01,2013-04-07 19:30:00,
2013-04-07 12:40:00,70.5,53.1,29.99,ESE,120,0.0,7.0,54,0.00,,CLR,0.00,VWS V14.01,2013-04-07 19:40:00,
2013-04-07 12:50:00,71.6,52.5,29.99,SSE,153,6.4,6.4,51,0.00,,CLR,0.00,VWS V14.01,2013-04-07 19:50:00,
2013-04-07 13:10:00,73.8,51.1,29.96,South,188,5.9,9.7,45,0.00,,CLR,0.00,VWS V14.01,2013-04-07 20:10:00,
2013-04-07 13:20:00,74.3,50.4,29.96,South,182,3.8,9.7,43,0.00,,CLR,0.00,VWS V14.01,2013-04-07 20:20:00,
2013-04-07 13:30:00,74.5,51.2,29.96,SSE,155,9.9,12.1,44,0.00,,CLR,0.00,VWS V14.01,2013-04-07 20:30:00,
2013-04-07 13:40:00,74.1,50.8,29.93,WSW,245,6.4,9.9,44,0.00,,CLR,0.00,VWS V14.01,2013-04-07 20:40:00,
2013-04-07 13:50:00,73.8,49.9,29.93,WSW,238,4.3,10.5,43,0.00,,CLR,0.00,VWS V14.01,2013-04-07 20:50:00,
2013-04-07 14:00:00,73.2,49.4,29.96,SSE,157,4.3,9.9,43,0.00,,CLR,0.00,VWS V14.01,2013-04-07 21:00:00,
2013-04-07 14:10:00,73.9,49.4,29.93,South,179,7.0,10.5,42,0.00,,CLR,0.00,VWS V14.01,2013-04-07 21:10:00,
2013-04-07 14:20:00,74.1,48.9,29.93,SSW,197,4.8,9.7,41,0.00,,CLR,0.00,VWS V14.01,2013-04-07 21:20:00,
2013-04-07 14:30:00,74.7,50.1,29.93,South,169,3.8,9.9,42,0.00,,CLR,0.00,VWS V14.01,2013-04-07 21:30:00,
2013-04-07 14:40:00,75.0,49.8,29.93,South,189,4.3,9.9,41,0.00,,CLR,0.00,VWS V14.01,2013-04-07 21:40:00,
2013-04-07 14:50:00,75.7,50.4,29.93,SSE,159,5.9,8.1,41,0.00,,CLR,0.00,VWS V14.01,2013-04-07 21:50:00,
2013-04-07 15:00:00,76.3,50.2,29.93,SSW,196,3.8,9.1,40,0.00,,CLR,0.00,VWS V14.01,2013-04-07 22:00:00,
2013-04-07 15:10:00,75.6,50.2,29.90,SSE,165,5.9,9.9,41,0.00,,CLR,0.00,VWS V14.01,2013-04-07 22:10:00,
2013-04-07 15:20:00,75.7,50.4,29.90,SSW,199,5.9,10.5,41,0.00,,CLR,0.00,VWS V14.01,2013-04-07 22:20:00,
2013-04-07 15:30:00,75.6,50.2,29.90,South,174,6.4,10.5,41,0.00,,CLR,0.00,VWS V14.01,2013-04-07 22:30:00,
2013-04-07 15:40:00,75.7,50.4,29.90,SW,221,4.8,9.7,41,0.00,,CLR,0.00,VWS V14.01,2013-04-07 22:40:00,
2013-04-07 15:50:00,75.4,48.7,29.90,SSE,168,3.8,11.5,39,0.00,,CLR,0.00,VWS V14.01,2013-04-07 22:50:00,
2013-04-07 16:00:00,75.0,49.1,29.87,SSW,201,7.0,9.7,40,0.00,,CLR,0.00,VWS V14.01,2013-04-07 23:00:00,
2013-04-07 16:10:00,75.2,48.6,29.90,SSE,167,3.8,7.5,39,0.00,,CLR,0.00,VWS V14.01,2013-04-07 23:10:00,
2013-04-07 16:20:00,75.9,49.2,29.90,South,177,6.4,7.5,39,0.00,,CLR,0.00,VWS V14.01,2013-04-07 23:20:00,
2013-04-07 16:30:00,76.5,49.7,29.87,SSW,201,3.8,7.5,39,0.00,,CLR,0.00,VWS V14.01,2013-04-07 23:30:00,
2013-04-07 16:40:00,76.6,49.8,29.87,South,175,5.9,5.9,39,0.00,,CLR,0.00,VWS V14.01,2013-04-07 23:40:00,
2013-04-07 17:00:00,77.7,50.8,29.87,South,174,4.3,5.9,39,0.00,,CLR,0.00,VWS V14.01,2013-04-08 00:00:00,
2013-04-07 17:10:00,77.5,51.3,29.87,SW,234,0.0,7.0,40,0.00,,CLR,0.00,VWS V14.01,2013-04-08 00:10:00,
2013-04-07 17:20:00,77.4,51.2,29.87,SSE,166,4.8,7.5,40,0.00,,CLR,0.00,VWS V14.01,2013-04-08 00:20:00,
2013-04-07 17:30:00,77.4,51.2,29.84,SSE,155,7.0,7.0,40,0.00,,CLR,0.00,VWS V14.01,2013-04-08 00:30:00,
2013-04-07 17:40:00,76.6,51.2,29.84,South,172,2.7,7.0,41,0.00,,CLR,0.00,VWS V14.01,2013-04-08 00:40:00,
2013-04-07 17:50:00,76.6,51.2,29.84,SW,215,3.8,4.8,41,0.00,,CLR,0.00,VWS V14.01,2013-04-08 00:50:00,
2013-04-07 18:00:00,76.1,50.7,29.84,WSW,241,3.8,4.3,41,0.00,,CLR,0.00,VWS V14.01,2013-04-08 01:00:00,
2013-04-07 18:20:00,74.5,50.5,29.84,NNW,339,3.2,5.9,43,0.00,,CLR,0.00,VWS V14.01,2013-04-08 01:20:00,
2013-04-07 18:30:00,73.6,49.7,29.84,NNE,16,3.2,6.4,43,0.00,,CLR,0.00,VWS V14.01,2013-04-08 01:30:00,
2013-04-07 18:40:00,73.2,50.0,29.84,East,84,4.8,4.8,44,0.00,,CLR,0.00,VWS V14.01,2013-04-08 01:40:00,
2013-04-07 18:50:00,72.7,50.1,29.84,East,94,2.7,5.9,45,0.00,,CLR,0.00,VWS V14.01,2013-04-08 01:50:00,
2013-04-07 19:00:00,72.0,49.5,29.84,NE,47,3.8,7.5,45,0.00,,CLR,0.00,VWS V14.01,2013-04-08 02:00:00,
2013-04-07 19:20:00,70.2,49.6,29.84,ENE,71,5.9,7.0,48,0.00,,CLR,0.00,VWS V14.01,2013-04-08 02:20:00,
2013-04-07 19:30:00,69.4,50.0,29.84,ENE,58,3.2,7.5,50,0.00,,CLR,0.00,VWS V14.01,2013-04-08 02:30:00,
2013-04-07 19:40:00,68.5,49.7,29.84,ENE,71,7.0,7.0,51,0.00,,CLR,0.00,VWS V14.01,2013-04-08 02:40:00,
2013-04-07 19:50:00,68.0,49.7,29.84,ESE,114,0.0,7.0,52,0.00,,CLR,0.00,VWS V14.01,2013-04-08 02:50:00,
2013-04-07 20:00:00,67.5,50.2,29.81,ESE,116,7.0,9.7,54,0.00,,CLR,0.00,VWS V14.01,2013-04-08 03:00:00,
2013-04-07 20:10:00,66.7,50.1,29.84,ENE,68,3.8,7.5,55,0.00,,CLR,0.00,VWS V14.01,2013-04-08 03:10:00,
2013-04-07 20:20:00,66.2,50.5,29.84,East,96,4.3,8.6,57,0.00,,CLR,0.00,VWS V14.01,2013-04-08 03:20:00,
2013-04-07 20:30:00,65.5,50.8,29.84,East,93,3.2,9.1,59,0.00,,CLR,0.00,VWS V14.01,2013-04-08 03:30:00,
2013-04-07 20:40:00,65.1,50.9,29.84,ENE,57,3.2,3.2,60,0.00,,CLR,0.00,VWS V14.01,2013-04-08 03:40:00,
2013-04-07 20:50:00,64.4,50.7,29.84,NE,54,5.4,5.4,61,0.00,,CLR,0.00,VWS V14.01,2013-04-08 03:50:00,
2013-04-07 21:00:00,64.0,51.2,29.84,ENE,67,3.8,6.4,63,0.00,,CLR,0.00,VWS V14.01,2013-04-08 04:00:00,
2013-04-07 21:10:00,63.3,51.0,29.84,East,94,6.4,6.4,64,0.00,,CLR,0.00,VWS V14.01,2013-04-08 04:10:00,
2013-04-07 21:20:00,62.8,51.3,29.84,East,81,3.2,7.5,66,0.00,,CLR,0.00,VWS V14.01,2013-04-08 04:20:00,
2013-04-07 21:30:00,62.2,51.2,29.84,East,88,3.8,7.0,67,0.00,,CLR,0.00,VWS V14.01,2013-04-08 04:30:00,
2013-04-07 21:40:00,61.7,51.0,29.87,East,93,0.0,7.0,68,0.00,,CLR,0.00,VWS V14.01,2013-04-08 04:40:00,
2013-04-07 21:50:00,61.2,50.9,29.87,ENE,58,4.3,4.8,69,0.00,,CLR,0.00,VWS V14.01,2013-04-08 04:50:00,
2013-04-07 22:00:00,60.6,51.2,29.84,NNE,28,0.0,7.5,71,0.00,,CLR,0.00,VWS V14.01,2013-04-08 05:00:00,
2013-04-07 22:10:00,60.4,51.0,29.84,NNE,32,0.0,3.8,71,0.00,,CLR,0.00,VWS V14.01,2013-04-08 05:10:00,
2013-04-07 22:20:00,60.1,51.0,29.84,NE,51,0.0,4.8,72,0.00,,CLR,0.00,VWS V14.01,2013-04-08 05:20:00,
2013-04-07 22:30:00,60.1,51.0,29.84,SSE,157,0.0,3.2,72,0.00,,CLR,0.00,VWS V14.01,2013-04-08 05:30:00,
2013-04-07 22:40:00,59.7,50.7,29.84,SE,145,0.0,0.0,72,0.00,,CLR,0.00,VWS V14.01,2013-04-08 05:40:00,
2013-04-07 23:00:00,59.4,50.7,29.87,North,1,4.3,4.3,73,0.00,,CLR,0.00,VWS V14.01,2013-04-08 06:00:00,
2013-04-07 23:10:00,58.8,50.6,29.87,NNE,14,3.8,4.8,74,0.00,,CLR,0.00,VWS V14.01,2013-04-08 06:10:00,
2013-04-07 23:20:00,58.5,50.2,29.87,NNE,15,0.0,4.8,74,0.00,,CLR,0.00,VWS V14.01,2013-04-08 06:20:00,
2013-04-07 23:30:00,58.1,50.2,29.84,NNE,15,0.0,3.2,75,0.00,,CLR,0.00,VWS V14.01,2013-04-08 06:30:00,
2013-04-07 23:40:00,57.6,49.7,29.84,North,9,0.0,0.0,75,0.00,,CLR,0.00,VWS V14.01,2013-04-08 06:40:00,
2013-04-07 23:50:00,57.6,50.1,29.84,North,9,0.0,0.0,76,0.00,,CLR,0.00,VWS V14.01,2013-04-08 06:50:00,